sensor_id;sensor_type;location;lat;lon;timestamp;pressure;altitude;pressure_sealevel;temperature;humidity
80323;BME280;69636;52.372;13.610;2023-05-18T00:00:34;102389.53;;;6.86;71.86
80323;BME280;69636;52.372;13.610;2023-05-18T00:03:01;102387.16;;;6.81;71.05
80323;BME280;69636;52.372;13.610;2023-05-18T00:05:28;102386.59;;;6.60;72.08
80323;BME280;69636;52.372;13.610;2023-05-18T00:07:57;102389.25;;;6.60;72.77
80323;BME280;69636;52.372;13.610;2023-05-18T00:10:24;102383.44;;;6.54;72.63
80323;BME280;69636;52.372;13.610;2023-05-18T00:12:52;102384.16;;;6.41;73.36
80323;BME280;69636;52.372;13.610;2023-05-18T00:15:20;102384.75;;;6.31;73.60
80323;BME280;69636;52.372;13.610;2023-05-18T00:17:48;102390.78;;;6.33;73.85
80323;BME280;69636;52.372;13.610;2023-05-18T00:20:16;102390.88;;;6.31;73.82
80323;BME280;69636;52.372;13.610;2023-05-18T00:22:43;102390.19;;;6.28;74.01
80323;BME280;69636;52.372;13.610;2023-05-18T00:25:11;102392.16;;;6.24;74.57
80323;BME280;69636;52.372;13.610;2023-05-18T00:27:38;102396.41;;;6.42;73.89
80323;BME280;69636;52.372;13.610;2023-05-18T00:30:06;102396.59;;;6.39;73.61
80323;BME280;69636;52.372;13.610;2023-05-18T00:32:35;102395.91;;;6.36;74.11
80323;BME280;69636;52.372;13.610;2023-05-18T00:35:03;102399.97;;;6.26;74.61
80323;BME280;69636;52.372;13.610;2023-05-18T00:37:30;102399.75;;;6.46;71.78
80323;BME280;69636;52.372;13.610;2023-05-18T00:39:57;102400.06;;;6.40;73.08
80323;BME280;69636;52.372;13.610;2023-05-18T00:42:24;102395.06;;;6.20;73.65
80323;BME280;69636;52.372;13.610;2023-05-18T00:44:52;102398.81;;;6.16;74.39
80323;BME280;69636;52.372;13.610;2023-05-18T00:47:20;102402.22;;;6.18;73.67
80323;BME280;69636;52.372;13.610;2023-05-18T00:49:49;102402.72;;;6.08;74.89
80323;BME280;69636;52.372;13.610;2023-05-18T00:52:17;102401.50;;;5.98;74.76
80323;BME280;69636;52.372;13.610;2023-05-18T00:54:46;102401.16;;;6.04;74.69
80323;BME280;69636;52.372;13.610;2023-05-18T00:57:13;102407.72;;;6.13;73.08
80323;BME280;69636;52.372;13.610;2023-05-18T00:59:41;102413.19;;;6.41;72.85
80323;BME280;69636;52.372;13.610;2023-05-18T01:02:08;102413.44;;;6.37;72.32
80323;BME280;69636;52.372;13.610;2023-05-18T01:04:36;102420.75;;;6.47;72.03
80323;BME280;69636;52.372;13.610;2023-05-18T01:07:05;102422.25;;;6.52;71.83
80323;BME280;69636;52.372;13.610;2023-05-18T01:09:33;102429.75;;;6.59;71.75
80323;BME280;69636;52.372;13.610;2023-05-18T01:12:05;102429.69;;;6.45;72.79
80323;BME280;69636;52.372;13.610;2023-05-18T01:14:38;102426.63;;;6.37;73.72
80323;BME280;69636;52.372;13.610;2023-05-18T01:17:12;102422.13;;;6.39;73.47
80323;BME280;69636;52.372;13.610;2023-05-18T01:20:02;102430.97;;;6.38;73.72
80323;BME280;69636;52.372;13.610;2023-05-18T01:22:57;102434.88;;;6.46;72.75
80323;BME280;69636;52.372;13.610;2023-05-18T01:25:32;102434.59;;;6.67;71.65
80323;BME280;69636;52.372;13.610;2023-05-18T01:28:05;102437.44;;;6.94;70.24
80323;BME280;69636;52.372;13.610;2023-05-18T01:30:37;102440.09;;;6.78;70.82
80323;BME280;69636;52.372;13.610;2023-05-18T01:33:06;102436.91;;;6.57;71.86
80323;BME280;69636;52.372;13.610;2023-05-18T01:35:34;102435.97;;;6.42;72.05
80323;BME280;69636;52.372;13.610;2023-05-18T01:38:01;102435.63;;;6.64;71.27
80323;BME280;69636;52.372;13.610;2023-05-18T01:40:32;102440.66;;;6.53;72.42
80323;BME280;69636;52.372;13.610;2023-05-18T01:43:09;102435.38;;;6.53;72.05
80323;BME280;69636;52.372;13.610;2023-05-18T01:45:39;102445.34;;;6.64;71.47
80323;BME280;69636;52.372;13.610;2023-05-18T01:48:09;102440.94;;;6.49;72.78
80323;BME280;69636;52.372;13.610;2023-05-18T01:50:42;102441.84;;;6.32;72.74
80323;BME280;69636;52.372;13.610;2023-05-18T01:53:17;102443.03;;;6.26;73.49
80323;BME280;69636;52.372;13.610;2023-05-18T01:55:47;102453.66;;;6.25;73.84
80323;BME280;69636;52.372;13.610;2023-05-18T01:58:18;102446.88;;;6.21;73.66
80323;BME280;69636;52.372;13.610;2023-05-18T02:00:46;102446.59;;;6.09;74.25
80323;BME280;69636;52.372;13.610;2023-05-18T02:03:14;102447.28;;;5.97;74.52
80323;BME280;69636;52.372;13.610;2023-05-18T02:05:41;102442.88;;;6.13;74.47
80323;BME280;69636;52.372;13.610;2023-05-18T02:08:08;102450.00;;;6.11;74.56
80323;BME280;69636;52.372;13.610;2023-05-18T02:10:37;102450.50;;;6.02;75.88
80323;BME280;69636;52.372;13.610;2023-05-18T02:13:04;102447.84;;;6.02;75.78
80323;BME280;69636;52.372;13.610;2023-05-18T02:15:33;102449.41;;;6.06;75.56
80323;BME280;69636;52.372;13.610;2023-05-18T02:18:00;102450.69;;;6.15;75.27
80323;BME280;69636;52.372;13.610;2023-05-18T02:20:28;102453.66;;;6.09;74.59
80323;BME280;69636;52.372;13.610;2023-05-18T02:22:57;102452.47;;;6.15;75.67
80323;BME280;69636;52.372;13.610;2023-05-18T02:25:24;102454.19;;;6.16;74.81
80323;BME280;69636;52.372;13.610;2023-05-18T02:27:52;102451.03;;;6.25;75.65
80323;BME280;69636;52.372;13.610;2023-05-18T02:30:19;102450.28;;;6.23;75.12
80323;BME280;69636;52.372;13.610;2023-05-18T02:32:48;102450.84;;;6.28;75.02
80323;BME280;69636;52.372;13.610;2023-05-18T02:35:15;102436.56;;;6.32;74.08
80323;BME280;69636;52.372;13.610;2023-05-18T02:37:43;102441.34;;;6.41;74.75
80323;BME280;69636;52.372;13.610;2023-05-18T02:40:11;102447.28;;;6.60;73.19
80323;BME280;69636;52.372;13.610;2023-05-18T02:42:39;102441.00;;;6.63;73.96
80323;BME280;69636;52.372;13.610;2023-05-18T02:45:07;102445.25;;;6.65;73.08
80323;BME280;69636;52.372;13.610;2023-05-18T02:47:34;102452.56;;;6.29;74.52
80323;BME280;69636;52.372;13.610;2023-05-18T02:50:04;102448.66;;;6.20;75.35
80323;BME280;69636;52.372;13.610;2023-05-18T02:52:32;102451.03;;;6.25;74.73
80323;BME280;69636;52.372;13.610;2023-05-18T02:54:59;102455.75;;;6.02;74.97
80323;BME280;69636;52.372;13.610;2023-05-18T02:57:26;102453.31;;;5.82;76.62
80323;BME280;69636;52.372;13.610;2023-05-18T02:59:54;102460.78;;;6.07;75.55
80323;BME280;69636;52.372;13.610;2023-05-18T03:02:21;102459.06;;;5.90;75.95
80323;BME280;69636;52.372;13.610;2023-05-18T03:04:48;102456.34;;;5.74;76.59
80323;BME280;69636;52.372;13.610;2023-05-18T03:07:17;102459.88;;;5.58;77.63
80323;BME280;69636;52.372;13.610;2023-05-18T03:09:45;102458.69;;;5.46;79.03
80323;BME280;69636;52.372;13.610;2023-05-18T03:12:12;102451.34;;;5.53;77.51
80323;BME280;69636;52.372;13.610;2023-05-18T03:14:40;102453.91;;;5.54;77.68
80323;BME280;69636;52.372;13.610;2023-05-18T03:17:07;102456.88;;;5.81;76.97
80323;BME280;69636;52.372;13.610;2023-05-18T03:19:34;102456.56;;;5.87;75.52
80323;BME280;69636;52.372;13.610;2023-05-18T03:22:02;102449.13;;;5.95;75.15
80323;BME280;69636;52.372;13.610;2023-05-18T03:24:30;102456.00;;;5.98;75.90
80323;BME280;69636;52.372;13.610;2023-05-18T03:26:58;102464.75;;;5.98;75.52
80323;BME280;69636;52.372;13.610;2023-05-18T03:29:25;102461.16;;;6.17;74.19
80323;BME280;69636;52.372;13.610;2023-05-18T03:31:52;102466.91;;;6.07;75.03
80323;BME280;69636;52.372;13.610;2023-05-18T03:34:20;102467.38;;;6.16;74.66
80323;BME280;69636;52.372;13.610;2023-05-18T03:36:47;102474.81;;;6.07;74.93
80323;BME280;69636;52.372;13.610;2023-05-18T03:39:14;102473.56;;;6.15;74.72
80323;BME280;69636;52.372;13.610;2023-05-18T03:41:43;102479.63;;;6.17;74.95
80323;BME280;69636;52.372;13.610;2023-05-18T03:44:10;102477.66;;;5.87;76.25
80323;BME280;69636;52.372;13.610;2023-05-18T03:46:37;102484.00;;;5.83;76.97
80323;BME280;69636;52.372;13.610;2023-05-18T03:49:05;102485.75;;;5.67;78.23
80323;BME280;69636;52.372;13.610;2023-05-18T03:51:33;102489.94;;;5.54;78.54
80323;BME280;69636;52.372;13.610;2023-05-18T03:54:00;102484.34;;;5.60;78.75
80323;BME280;69636;52.372;13.610;2023-05-18T03:56:28;102493.41;;;5.54;78.23
80323;BME280;69636;52.372;13.610;2023-05-18T03:58:56;102488.38;;;5.50;79.05
80323;BME280;69636;52.372;13.610;2023-05-18T04:01:24;102498.13;;;5.47;79.26
80323;BME280;69636;52.372;13.610;2023-05-18T04:03:52;102495.75;;;5.60;78.89
80323;BME280;69636;52.372;13.610;2023-05-18T04:06:20;102501.84;;;5.61;78.71
80323;BME280;69636;52.372;13.610;2023-05-18T04:08:48;102501.22;;;5.73;77.75
80323;BME280;69636;52.372;13.610;2023-05-18T04:11:15;102507.56;;;5.86;77.48
80323;BME280;69636;52.372;13.610;2023-05-18T04:13:42;102500.00;;;5.97;77.71
80323;BME280;69636;52.372;13.610;2023-05-18T04:16:11;102510.81;;;6.08;78.23
80323;BME280;69636;52.372;13.610;2023-05-18T04:18:39;102509.22;;;6.22;77.12
80323;BME280;69636;52.372;13.610;2023-05-18T04:21:07;102505.31;;;6.29;77.33
80323;BME280;69636;52.372;13.610;2023-05-18T04:23:34;102509.69;;;6.45;76.51
80323;BME280;69636;52.372;13.610;2023-05-18T04:26:01;102512.41;;;6.44;76.92
80323;BME280;69636;52.372;13.610;2023-05-18T04:28:29;102511.31;;;6.48;76.12
80323;BME280;69636;52.372;13.610;2023-05-18T04:30:56;102512.06;;;6.66;76.99
80323;BME280;69636;52.372;13.610;2023-05-18T04:33:25;102517.09;;;6.70;76.98
80323;BME280;69636;52.372;13.610;2023-05-18T04:35:52;102516.75;;;6.92;75.26
80323;BME280;69636;52.372;13.610;2023-05-18T04:38:20;102512.81;;;6.99;75.25
80323;BME280;69636;52.372;13.610;2023-05-18T04:40:47;102516.53;;;7.11;75.47
80323;BME280;69636;52.372;13.610;2023-05-18T04:43:15;102519.59;;;7.19;74.81
80323;BME280;69636;52.372;13.610;2023-05-18T04:45:43;102524.16;;;7.31;74.67
80323;BME280;69636;52.372;13.610;2023-05-18T04:48:11;102519.69;;;7.47;73.90
80323;BME280;69636;52.372;13.610;2023-05-18T04:50:41;102524.81;;;7.65;73.11
80323;BME280;69636;52.372;13.610;2023-05-18T04:53:10;102524.03;;;7.93;72.43
80323;BME280;69636;52.372;13.610;2023-05-18T04:55:37;102524.50;;;8.13;70.85
80323;BME280;69636;52.372;13.610;2023-05-18T04:58:05;102529.53;;;8.46;69.68
80323;BME280;69636;52.372;13.610;2023-05-18T05:00:33;102532.25;;;8.59;70.08
80323;BME280;69636;52.372;13.610;2023-05-18T05:03:00;102523.44;;;8.73;68.71
80323;BME280;69636;52.372;13.610;2023-05-18T05:05:28;102531.50;;;8.98;68.28
80323;BME280;69636;52.372;13.610;2023-05-18T05:07:57;102529.72;;;8.99;67.93
80323;BME280;69636;52.372;13.610;2023-05-18T05:10:24;102534.44;;;9.21;69.55
80323;BME280;69636;52.372;13.610;2023-05-18T05:12:52;102535.31;;;9.61;66.79
80323;BME280;69636;52.372;13.610;2023-05-18T05:15:19;102527.97;;;10.15;64.50
80323;BME280;69636;52.372;13.610;2023-05-18T05:17:47;102527.97;;;10.15;64.65
80323;BME280;69636;52.372;13.610;2023-05-18T05:20:14;102523.75;;;9.74;66.22
80323;BME280;69636;52.372;13.610;2023-05-18T05:22:42;102534.88;;;9.92;66.37
80323;BME280;69636;52.372;13.610;2023-05-18T05:25:11;102529.78;;;10.14;64.77
80323;BME280;69636;52.372;13.610;2023-05-18T05:27:38;102533.19;;;9.78;65.05
80323;BME280;69636;52.372;13.610;2023-05-18T05:30:07;102539.31;;;9.66;65.93
80323;BME280;69636;52.372;13.610;2023-05-18T05:32:34;102545.59;;;9.78;65.33
80323;BME280;69636;52.372;13.610;2023-05-18T05:35:02;102547.72;;;9.98;65.09
80323;BME280;69636;52.372;13.610;2023-05-18T05:37:30;102546.34;;;9.80;65.21
80323;BME280;69636;52.372;13.610;2023-05-18T05:39:57;102541.50;;;10.25;64.22
80323;BME280;69636;52.372;13.610;2023-05-18T05:42:25;102547.09;;;10.45;62.82
80323;BME280;69636;52.372;13.610;2023-05-18T05:44:54;102541.38;;;10.26;63.43
80323;BME280;69636;52.372;13.610;2023-05-18T05:47:21;102546.44;;;10.54;62.63
80323;BME280;69636;52.372;13.610;2023-05-18T05:49:49;102549.84;;;10.44;62.58
80323;BME280;69636;52.372;13.610;2023-05-18T05:52:16;102552.69;;;10.66;62.47
80323;BME280;69636;52.372;13.610;2023-05-18T05:54:43;102547.81;;;10.60;62.91
80323;BME280;69636;52.372;13.610;2023-05-18T05:57:10;102547.22;;;10.80;61.31
80323;BME280;69636;52.372;13.610;2023-05-18T05:59:42;102550.16;;;10.65;61.49
80323;BME280;69636;52.372;13.610;2023-05-18T06:02:09;102546.75;;;10.63;61.94
80323;BME280;69636;52.372;13.610;2023-05-18T06:04:38;102547.53;;;10.88;61.01
80323;BME280;69636;52.372;13.610;2023-05-18T06:07:05;102545.72;;;11.37;59.95
80323;BME280;69636;52.372;13.610;2023-05-18T06:09:33;102549.91;;;11.28;58.23
80323;BME280;69636;52.372;13.610;2023-05-18T06:12:00;102545.88;;;10.99;59.88
80323;BME280;69636;52.372;13.610;2023-05-18T06:14:27;102546.28;;;11.29;59.25
80323;BME280;69636;52.372;13.610;2023-05-18T06:16:56;102549.66;;;11.55;59.42
80323;BME280;69636;52.372;13.610;2023-05-18T06:19:23;102543.81;;;11.50;58.24
80323;BME280;69636;52.372;13.610;2023-05-18T06:21:51;102543.72;;;11.51;58.85
80323;BME280;69636;52.372;13.610;2023-05-18T06:24:18;102537.53;;;11.51;58.99
80323;BME280;69636;52.372;13.610;2023-05-18T06:26:45;102547.16;;;11.76;58.36
80323;BME280;69636;52.372;13.610;2023-05-18T06:29:13;102549.94;;;11.74;58.22
80323;BME280;69636;52.372;13.610;2023-05-18T06:31:41;102555.56;;;11.82;57.64
80323;BME280;69636;52.372;13.610;2023-05-18T06:34:10;102554.03;;;12.02;57.86
80323;BME280;69636;52.372;13.610;2023-05-18T06:36:37;102550.63;;;12.00;56.71
80323;BME280;69636;52.372;13.610;2023-05-18T06:39:05;102552.56;;;11.87;57.93
80323;BME280;69636;52.372;13.610;2023-05-18T06:41:33;102550.75;;;11.87;56.39
80323;BME280;69636;52.372;13.610;2023-05-18T06:44:00;102549.94;;;11.63;57.64
80323;BME280;69636;52.372;13.610;2023-05-18T06:46:28;102557.41;;;12.04;57.02
80323;BME280;69636;52.372;13.610;2023-05-18T06:48:55;102556.09;;;12.32;55.22
80323;BME280;69636;52.372;13.610;2023-05-18T06:51:24;102552.84;;;12.40;55.09
80323;BME280;69636;52.372;13.610;2023-05-18T06:53:51;102557.69;;;12.68;53.71
80323;BME280;69636;52.372;13.610;2023-05-18T06:56:18;102560.13;;;12.38;54.06
80323;BME280;69636;52.372;13.610;2023-05-18T06:58:46;102556.25;;;12.42;54.90
80323;BME280;69636;52.372;13.610;2023-05-18T07:01:13;102552.94;;;12.27;55.21
80323;BME280;69636;52.372;13.610;2023-05-18T07:03:40;102553.91;;;12.60;54.34
80323;BME280;69636;52.372;13.610;2023-05-18T07:06:07;102554.88;;;12.58;55.72
80323;BME280;69636;52.372;13.610;2023-05-18T07:08:36;102555.88;;;12.35;55.02
80323;BME280;69636;52.372;13.610;2023-05-18T07:11:04;102552.31;;;12.79;53.73
80323;BME280;69636;52.372;13.610;2023-05-18T07:13:31;102557.53;;;13.35;52.78
80323;BME280;69636;52.372;13.610;2023-05-18T07:15:59;102552.00;;;12.73;53.30
80323;BME280;69636;52.372;13.610;2023-05-18T07:18:26;102552.91;;;12.83;54.19
80323;BME280;69636;52.372;13.610;2023-05-18T07:20:54;102547.75;;;13.13;52.04
80323;BME280;69636;52.372;13.610;2023-05-18T07:23:21;102549.09;;;13.08;51.42
80323;BME280;69636;52.372;13.610;2023-05-18T07:25:50;102543.63;;;12.21;53.97
80323;BME280;69636;52.372;13.610;2023-05-18T07:28:17;102545.34;;;12.11;54.58
80323;BME280;69636;52.372;13.610;2023-05-18T07:30:44;102545.56;;;12.31;53.14
80323;BME280;69636;52.372;13.610;2023-05-18T07:33:12;102546.06;;;12.36;53.29
80323;BME280;69636;52.372;13.610;2023-05-18T07:35:39;102543.34;;;12.80;50.88
80323;BME280;69636;52.372;13.610;2023-05-18T07:38:06;102543.03;;;12.40;51.41
80323;BME280;69636;52.372;13.610;2023-05-18T07:40:34;102551.13;;;12.05;53.06
80323;BME280;69636;52.372;13.610;2023-05-18T07:43:03;102546.81;;;11.69;54.21
80323;BME280;69636;52.372;13.610;2023-05-18T07:45:30;102541.28;;;11.48;55.93
80323;BME280;69636;52.372;13.610;2023-05-18T07:47:58;102542.38;;;11.81;54.35
80323;BME280;69636;52.372;13.610;2023-05-18T07:50:25;102541.47;;;12.38;52.01
80323;BME280;69636;52.372;13.610;2023-05-18T07:52:52;102546.09;;;13.01;50.68
80323;BME280;69636;52.372;13.610;2023-05-18T07:55:20;102544.63;;;13.08;51.96
80323;BME280;69636;52.372;13.610;2023-05-18T07:57:47;102546.56;;;13.06;51.77
80323;BME280;69636;52.372;13.610;2023-05-18T08:00:18;102553.72;;;13.17;48.53
80323;BME280;69636;52.372;13.610;2023-05-18T08:02:45;102554.56;;;13.06;49.27
80323;BME280;69636;52.372;13.610;2023-05-18T08:05:13;102562.34;;;13.41;48.84
80323;BME280;69636;52.372;13.610;2023-05-18T08:07:41;102567.84;;;13.29;49.16
80323;BME280;69636;52.372;13.610;2023-05-18T08:10:09;102559.91;;;13.17;48.70
80323;BME280;69636;52.372;13.610;2023-05-18T08:12:36;102564.66;;;12.91;47.85
80323;BME280;69636;52.372;13.610;2023-05-18T08:15:05;102560.25;;;13.02;47.90
80323;BME280;69636;52.372;13.610;2023-05-18T08:17:34;102559.97;;;13.27;47.74
80323;BME280;69636;52.372;13.610;2023-05-18T08:20:01;102555.34;;;13.29;46.49
80323;BME280;69636;52.372;13.610;2023-05-18T08:22:29;102560.25;;;13.24;47.56
80323;BME280;69636;52.372;13.610;2023-05-18T08:24:56;102565.38;;;13.69;46.96
80323;BME280;69636;52.372;13.610;2023-05-18T08:27:23;102565.16;;;14.23;44.77
80323;BME280;69636;52.372;13.610;2023-05-18T08:29:50;102550.78;;;14.94;43.12
80323;BME280;69636;52.372;13.610;2023-05-18T08:32:18;102555.00;;;14.87;43.33
80323;BME280;69636;52.372;13.610;2023-05-18T08:34:46;102554.09;;;14.37;45.47
80323;BME280;69636;52.372;13.610;2023-05-18T08:37:14;102561.09;;;13.98;45.46
80323;BME280;69636;52.372;13.610;2023-05-18T08:39:41;102559.38;;;13.97;45.86
80323;BME280;69636;52.372;13.610;2023-05-18T08:42:15;102560.47;;;13.53;46.74
80323;BME280;69636;52.372;13.610;2023-05-18T08:44:49;102559.94;;;14.21;44.60
80323;BME280;69636;52.372;13.610;2023-05-18T08:47:17;102549.72;;;15.26;42.17
80323;BME280;69636;52.372;13.610;2023-05-18T08:49:50;102556.13;;;14.94;42.31
80323;BME280;69636;52.372;13.610;2023-05-18T08:52:21;102556.53;;;14.80;43.04
80323;BME280;69636;52.372;13.610;2023-05-18T08:54:50;102562.19;;;14.47;44.34
80323;BME280;69636;52.372;13.610;2023-05-18T08:57:21;102568.75;;;13.71;47.03
80323;BME280;69636;52.372;13.610;2023-05-18T08:59:48;102563.00;;;13.54;47.52
80323;BME280;69636;52.372;13.610;2023-05-18T09:02:18;102568.03;;;13.48;48.11
80323;BME280;69636;52.372;13.610;2023-05-18T09:04:46;102566.22;;;13.48;48.27
80323;BME280;69636;52.372;13.610;2023-05-18T09:07:16;102564.06;;;13.31;49.23
80323;BME280;69636;52.372;13.610;2023-05-18T09:09:45;102565.19;;;14.33;46.70
80323;BME280;69636;52.372;13.610;2023-05-18T09:12:13;102558.47;;;15.57;44.06
80323;BME280;69636;52.372;13.610;2023-05-18T09:14:42;102553.47;;;15.14;42.48
80323;BME280;69636;52.372;13.610;2023-05-18T09:17:09;102551.56;;;14.66;43.09
80323;BME280;69636;52.372;13.610;2023-05-18T09:19:38;102555.16;;;14.46;44.27
80323;BME280;69636;52.372;13.610;2023-05-18T09:22:07;102551.75;;;14.13;45.70
80323;BME280;69636;52.372;13.610;2023-05-18T09:24:35;102552.09;;;13.99;46.06
80323;BME280;69636;52.372;13.610;2023-05-18T09:27:03;102550.13;;;14.01;45.99
80323;BME280;69636;52.372;13.610;2023-05-18T09:29:31;102545.94;;;14.39;44.74
80323;BME280;69636;52.372;13.610;2023-05-18T09:32:01;102542.03;;;14.73;43.75
80323;BME280;69636;52.372;13.610;2023-05-18T09:34:38;102541.13;;;14.63;44.53
80323;BME280;69636;52.372;13.610;2023-05-18T09:37:06;102540.34;;;14.82;43.76
80323;BME280;69636;52.372;13.610;2023-05-18T09:39:36;102532.75;;;14.77;42.92
80323;BME280;69636;52.372;13.610;2023-05-18T09:42:04;102542.97;;;14.63;43.42
80323;BME280;69636;52.372;13.610;2023-05-18T09:44:31;102540.91;;;14.76;43.33
80323;BME280;69636;52.372;13.610;2023-05-18T09:46:59;102537.28;;;14.96;42.72
80323;BME280;69636;52.372;13.610;2023-05-18T09:49:28;102536.59;;;15.42;39.68
80323;BME280;69636;52.372;13.610;2023-05-18T09:51:56;102534.97;;;16.72;38.30
80323;BME280;69636;52.372;13.610;2023-05-18T09:54:23;102539.38;;;17.61;36.30
80323;BME280;69636;52.372;13.610;2023-05-18T09:56:52;102535.34;;;17.40;36.29
80323;BME280;69636;52.372;13.610;2023-05-18T09:59:36;102539.06;;;16.93;36.11
80323;BME280;69636;52.372;13.610;2023-05-18T10:02:04;102533.38;;;18.19;35.61
80323;BME280;69636;52.372;13.610;2023-05-18T10:04:34;102532.69;;;18.43;33.34
80323;BME280;69636;52.372;13.610;2023-05-18T10:07:02;102530.59;;;19.54;31.43
80323;BME280;69636;52.372;13.610;2023-05-18T10:09:35;102525.69;;;19.41;31.29
80323;BME280;69636;52.372;13.610;2023-05-18T10:12:09;102518.78;;;20.34;30.50
80323;BME280;69636;52.372;13.610;2023-05-18T10:14:36;102522.44;;;20.58;30.10
80323;BME280;69636;52.372;13.610;2023-05-18T10:17:04;102525.47;;;20.55;30.36
80323;BME280;69636;52.372;13.610;2023-05-18T10:19:43;102521.41;;;21.13;29.47
80323;BME280;69636;52.372;13.610;2023-05-18T10:22:14;102516.84;;;20.20;30.28
80323;BME280;69636;52.372;13.610;2023-05-18T10:24:44;102524.94;;;18.82;32.74
80323;BME280;69636;52.372;13.610;2023-05-18T10:27:16;102515.59;;;19.19;31.95
80323;BME280;69636;52.372;13.610;2023-05-18T10:29:46;102511.91;;;20.40;30.58
80323;BME280;69636;52.372;13.610;2023-05-18T10:32:15;102505.34;;;20.26;30.55
80323;BME280;69636;52.372;13.610;2023-05-18T10:34:43;102504.13;;;19.90;30.53
80323;BME280;69636;52.372;13.610;2023-05-18T10:37:12;102502.13;;;20.70;30.60
80323;BME280;69636;52.372;13.610;2023-05-18T10:39:41;102501.28;;;20.30;30.70
80323;BME280;69636;52.372;13.610;2023-05-18T10:42:13;102493.53;;;20.27;31.04
80323;BME280;69636;52.372;13.610;2023-05-18T10:44:44;102505.50;;;20.72;30.62
80323;BME280;69636;52.372;13.610;2023-05-18T10:47:13;102509.88;;;21.64;28.53
80323;BME280;69636;52.372;13.610;2023-05-18T10:49:42;102506.19;;;21.20;28.79
80323;BME280;69636;52.372;13.610;2023-05-18T10:52:10;102501.81;;;20.65;29.30
80323;BME280;69636;52.372;13.610;2023-05-18T10:54:39;102501.28;;;20.30;30.00
80323;BME280;69636;52.372;13.610;2023-05-18T10:57:09;102503.63;;;19.86;31.16
80323;BME280;69636;52.372;13.610;2023-05-18T10:59:39;102497.28;;;20.18;30.40
80323;BME280;69636;52.372;13.610;2023-05-18T11:02:12;102498.97;;;20.19;30.32
80323;BME280;69636;52.372;13.610;2023-05-18T11:04:41;102501.63;;;20.27;29.91
80323;BME280;69636;52.372;13.610;2023-05-18T11:07:10;102499.19;;;20.02;30.32
80323;BME280;69636;52.372;13.610;2023-05-18T11:09:40;102500.44;;;21.00;29.48
80323;BME280;69636;52.372;13.610;2023-05-18T11:12:10;102491.31;;;21.61;28.60
80323;BME280;69636;52.372;13.610;2023-05-18T11:14:47;102492.50;;;21.59;28.76
80323;BME280;69636;52.372;13.610;2023-05-18T11:17:19;102495.28;;;22.32;27.01
80323;BME280;69636;52.372;13.610;2023-05-18T11:20:15;102495.00;;;21.98;26.92
80323;BME280;69636;52.372;13.610;2023-05-18T11:22:47;102497.47;;;20.87;29.37
80323;BME280;69636;52.372;13.610;2023-05-18T11:28:21;102497.72;;;18.85;32.49
80323;BME280;69636;52.372;13.610;2023-05-18T11:30:49;102488.00;;;18.50;32.93
80323;BME280;69636;52.372;13.610;2023-05-18T11:33:24;102492.28;;;18.61;33.73
80323;BME280;69636;52.372;13.610;2023-05-18T11:36:00;102478.41;;;19.71;31.54
80323;BME280;69636;52.372;13.610;2023-05-18T11:38:48;102488.28;;;20.73;29.92
80323;BME280;69636;52.372;13.610;2023-05-18T11:41:32;102481.56;;;20.38;30.28
80323;BME280;69636;52.372;13.610;2023-05-18T11:44:14;102478.25;;;20.59;30.76
80323;BME280;69636;52.372;13.610;2023-05-18T11:46:51;102475.31;;;20.38;30.49
80323;BME280;69636;52.372;13.610;2023-05-18T11:49:22;102483.03;;;20.49;31.11
80323;BME280;69636;52.372;13.610;2023-05-18T11:52:13;102476.50;;;19.80;31.27
80323;BME280;69636;52.372;13.610;2023-05-18T11:54:43;102475.88;;;20.25;30.77
80323;BME280;69636;52.372;13.610;2023-05-18T11:57:12;102472.84;;;19.48;31.00
80323;BME280;69636;52.372;13.610;2023-05-18T11:59:42;102462.81;;;20.76;29.01
80323;BME280;69636;52.372;13.610;2023-05-18T12:02:12;102469.13;;;20.60;29.34
80323;BME280;69636;52.372;13.610;2023-05-18T12:04:44;102460.56;;;20.09;30.81
80323;BME280;69636;52.372;13.610;2023-05-18T12:07:12;102472.44;;;19.92;31.57
80323;BME280;69636;52.372;13.610;2023-05-18T12:09:40;102465.09;;;18.96;32.53
80323;BME280;69636;52.372;13.610;2023-05-18T12:12:09;102465.19;;;18.20;33.88
80323;BME280;69636;52.372;13.610;2023-05-18T12:14:38;102459.88;;;18.95;32.56
80323;BME280;69636;52.372;13.610;2023-05-18T12:17:07;102460.81;;;20.39;30.04
80323;BME280;69636;52.372;13.610;2023-05-18T12:19:42;102463.13;;;21.26;28.97
80323;BME280;69636;52.372;13.610;2023-05-18T12:22:10;102458.03;;;21.61;29.10
80323;BME280;69636;52.372;13.610;2023-05-18T12:24:40;102458.44;;;21.73;28.36
80323;BME280;69636;52.372;13.610;2023-05-18T12:27:08;102456.88;;;20.10;29.89
80323;BME280;69636;52.372;13.610;2023-05-18T12:29:37;102463.22;;;18.97;31.83
80323;BME280;69636;52.372;13.610;2023-05-18T12:32:06;102462.47;;;18.12;33.96
80323;BME280;69636;52.372;13.610;2023-05-18T12:34:34;102455.34;;;18.45;34.47
80323;BME280;69636;52.372;13.610;2023-05-18T12:37:05;102448.56;;;18.75;32.77
80323;BME280;69636;52.372;13.610;2023-05-18T12:39:33;102457.84;;;18.89;33.05
80323;BME280;69636;52.372;13.610;2023-05-18T12:42:10;102458.03;;;19.04;31.90
80323;BME280;69636;52.372;13.610;2023-05-18T12:44:38;102447.22;;;18.63;31.99
80323;BME280;69636;52.372;13.610;2023-05-18T12:47:05;102445.88;;;18.67;32.52
80323;BME280;69636;52.372;13.610;2023-05-18T12:49:36;102442.44;;;18.49;31.98
80323;BME280;69636;52.372;13.610;2023-05-18T12:52:10;102447.44;;;18.94;31.64
80323;BME280;69636;52.372;13.610;2023-05-18T12:54:48;102444.22;;;19.31;31.65
80323;BME280;69636;52.372;13.610;2023-05-18T12:57:16;102439.16;;;19.52;30.69